Terminal Aerodrome Forecast
Issued by NWS

Home | Current Version | Previous Version | Text Only | Print | Product List | Glossary On
Versions: 1 2 3 4 5 6 7 8 9 10 11 12 13 14 15 16 17 18 19 20
658
FTUS43 KAPX 071729
TAFMBL
TAF
KMBL 071729Z 0718/0818 25013G23KT P6SM OVC025
     FM072000 25014G27KT P6SM OVC015
     FM080100 26016G31KT P6SM VCSH OVC015
     FM080400 27016G31KT P6SM -SHSN OVC020
     FM081200 28015G30KT 6SM -SHSN OVC010
     FM081700 31015G28KT 6SM -SHSN OVC015=

USA.gov is the U.S. government's official web portal to all federal, state and local government web resources and services.